Time;durP1;ratioP1;P1;durP2;ratioP2;P2;SDS_P1;SDS_P2;PMS_P1;PMS_P2;Temp;Humidity;BMP_temperature;BMP_pressure;BME280_temperature;BME280_humidity;BME280_pressure;Samples;Min_cycle;Max_cycle;Signal;HPM_P1;HPM_P2
2022/03/14 00:01:06;;;;;;;23.87;12.23;;;;;;;-0.06;40.87;101267.50;4380264;32;34577;-60
2022/03/14 00:03:48;;;;;;;23.83;11.05;;;;;;;0.26;40.12;101268.47;4370347;32;31731;-60
2022/03/14 00:06:17;;;;;;;26.98;11.82;;;;;;;1.01;38.93;101272.22;4376907;32;34608;-61
2022/03/14 00:08:47;;;;;;;27.20;12.63;;;;;;;0.97;39.75;101276.97;4377718;32;34403;-59
2022/03/14 00:11:16;;;;;;;25.70;11.05;;;;;;;1.90;38.14;101267.06;4378574;32;33790;-61
2022/03/14 00:13:46;;;;;;;26.05;11.65;;;;;;;1.20;39.75;101281.06;4377542;32;33557;-62
2022/03/14 00:16:23;;;;;;;26.48;11.65;;;;;;;0.98;39.86;101288.09;4377725;32;33174;-62
2022/03/14 00:18:52;;;;;;;24.15;11.75;;;;;;;1.32;39.43;101282.34;4378377;32;34533;-61
2022/03/14 00:21:23;;;;;;;24.98;11.07;;;;;;;1.52;38.65;101270.75;4378407;32;34700;-60
2022/03/14 00:23:52;;;;;;;24.73;11.00;;;;;;;1.21;38.60;101280.31;4378268;32;34221;-59
2022/03/14 00:26:22;;;;;;;27.08;12.35;;;;;;;0.73;39.53;101276.91;4377322;32;33650;-61
2022/03/14 00:28:50;;;;;;;24.02;11.55;;;;;;;0.18;41.04;101285.50;4374968;32;32917;-60
2022/03/14 00:31:20;;;;;;;33.15;16.00;;;;;;;-0.13;41.66;101287.97;4378501;32;33291;-62
2022/03/14 00:33:48;;;;;;;32.67;14.57;;;;;;;-0.39;43.40;101288.50;4372965;32;33431;-59
2022/03/14 00:36:15;;;;;;;44.70;19.02;;;;;;;-0.56;42.77;101285.69;4377098;32;33229;-61
2022/03/14 00:38:43;;;;;;;54.03;21.77;;;;;;;-0.54;42.63;101289.31;4378100;32;32465;-61
2022/03/14 00:41:12;;;;;;;62.47;22.87;;;;;;;-0.21;41.77;101287.09;4375482;32;34907;-61
2022/03/14 00:43:40;;;;;;;51.50;19.10;;;;;;;-0.04;41.10;101292.44;4376282;32;31850;-60
2022/03/14 00:46:07;;;;;;;42.58;17.08;;;;;;;0.21;40.46;101289.09;4378033;32;33678;-60
2022/03/14 00:48:36;;;;;;;42.55;18.20;;;;;;;0.04;41.04;101278.00;4377990;32;33593;-60
2022/03/14 00:51:04;;;;;;;39.58;18.92;;;;;;;-0.44;43.50;101298.16;4378254;32;32441;-61
2022/03/14 00:53:32;;;;;;;41.45;19.02;;;;;;;-0.74;44.41;101279.44;4372246;32;33352;-60
2022/03/14 00:55:59;;;;;;;45.20;18.95;;;;;;;-1.07;45.65;101285.97;4377485;32;34027;-59
2022/03/14 00:58:29;;;;;;;43.15;20.80;;;;;;;-0.88;44.40;101285.53;4378541;32;33872;-59
2022/03/14 01:00:59;;;;;;;43.65;20.92;;;;;;;-1.45;46.63;101287.56;4381907;32;33735;-61
2022/03/14 01:03:27;;;;;;;54.33;22.58;;;;;;;-1.66;47.71;101295.19;4377447;32;32070;-61
2022/03/14 01:05:54;;;;;;;55.50;24.33;;;;;;;-1.81;48.80;101299.41;4364123;32;33269;-60
2022/03/14 01:08:22;;;;;;;47.92;20.48;;;;;;;-1.82;48.84;101297.59;4371288;32;181526;-61
2022/03/14 01:10:50;;;;;;;47.30;20.35;;;;;;;-1.72;47.58;101299.56;4373226;32;33939;-61
2022/03/14 01:13:18;;;;;;;46.33;20.80;;;;;;;-1.24;46.47;101290.75;4376356;32;34128;-59
2022/03/14 01:15:46;;;;;;;40.67;20.45;;;;;;;-1.27;46.66;101303.12;4374912;32;34480;-60
2022/03/14 01:18:14;;;;;;;37.28;17.10;;;;;;;-0.60;45.47;101299.72;4377716;32;34851;-59
2022/03/14 01:20:42;;;;;;;43.70;17.50;;;;;;;-0.64;44.20;101302.66;4379035;32;33802;-58
2022/03/14 01:23:10;;;;;;;35.97;15.15;;;;;;;-0.95;44.62;101303.34;4364015;32;33598;-62
2022/03/14 01:25:37;;;;;;;33.05;13.20;;;;;;;-0.57;43.40;101306.81;4363877;32;34065;-60
2022/03/14 01:28:05;;;;;;;25.75;14.05;;;;;;;-0.49;42.80;101308.56;4377056;32;33914;-61
2022/03/14 01:30:32;;;;;;;24.20;12.93;;;;;;;0.05;41.92;101304.37;4378344;32;35556;-59
2022/03/14 01:33:00;;;;;;;28.02;12.73;;;;;;;0.14;41.98;101307.94;4377669;32;33473;-61
2022/03/14 01:35:27;;;;;;;26.00;11.88;;;;;;;0.66;41.26;101303.41;4376628;32;33897;-62
2022/03/14 01:37:56;;;;;;;22.83;11.40;;;;;;;0.86;40.42;101297.00;4377144;32;34422;-62
2022/03/14 01:40:25;;;;;;;25.10;11.82;;;;;;;0.32;40.54;101298.84;4377565;32;34633;-60
2022/03/14 01:42:53;;;;;;;29.75;13.20;;;;;;;-0.29;42.56;101309.19;4377777;32;33599;-62
2022/03/14 01:45:22;;;;;;;42.25;17.83;;;;;;;-1.24;44.47;101313.62;4377860;32;33902;-60
2022/03/14 01:47:51;;;;;;;33.72;16.40;;;;;;;-1.70;47.00;101320.97;4377663;32;34579;-59
2022/03/14 01:50:19;;;;;;;39.22;17.87;;;;;;;-1.75;47.17;101324.63;4377478;32;34041;-60
2022/03/14 01:52:47;;;;;;;48.40;20.58;;;;;;;-1.95;48.10;101315.56;4378027;32;33591;-61
2022/03/14 01:55:15;;;;;;;51.50;23.42;;;;;;;-1.89;48.96;101323.91;4378013;32;34188;-59
2022/03/14 01:57:42;;;;;;;52.47;23.80;;;;;;;-2.00;49.81;101326.81;4364075;32;34588;-60
2022/03/14 02:00:11;;;;;;;70.45;28.65;;;;;;;-2.40;51.10;101337.28;4376774;32;33875;-61
2022/03/14 02:02:41;;;;;;;55.47;25.17;;;;;;;-2.47;52.11;101335.63;4406835;27;34155;-81
2022/03/14 02:05:10;;;;;;;55.63;24.75;;;;;;;-2.43;51.46;101334.38;4406440;32;34538;-80
2022/03/14 02:07:38;;;;;;;47.80;22.13;;;;;;;-1.92;49.74;101326.06;4406391;27;33086;-59
2022/03/14 02:10:06;;;;;;;50.90;21.08;;;;;;;-1.96;50.34;101328.97;4398973;32;33368;-59
2022/03/14 02:12:34;;;;;;;34.88;15.98;;;;;;;-1.83;50.32;101342.41;4404697;32;33421;-59
2022/03/14 02:15:02;;;;;;;34.28;16.33;;;;;;;-1.57;48.05;101339.47;4397633;32;33848;-59
2022/03/14 02:17:29;;;;;;;34.95;16.65;;;;;;;-1.61;48.49;101332.22;4389801;32;33743;-60
2022/03/14 02:19:58;;;;;;;45.42;19.73;;;;;;;-1.66;47.37;101341.87;4392893;32;34143;-60
2022/03/14 02:22:26;;;;;;;41.78;17.75;;;;;;;-1.25;47.24;101337.25;4397460;32;34456;-58
2022/03/14 02:24:53;;;;;;;49.85;21.00;;;;;;;-0.85;45.44;101346.91;4398245;32;33757;-59
2022/03/14 02:27:22;;;;;;;39.95;17.50;;;;;;;-0.96;46.40;101349.88;4392392;32;34822;-59
2022/03/14 02:29:49;;;;;;;52.45;22.62;;;;;;;-1.40;47.60;101352.53;4392299;32;33929;-60
2022/03/14 02:32:18;;;;;;;54.00;21.80;;;;;;;-1.59;48.95;101353.62;4392063;32;33495;-59
2022/03/14 02:34:45;;;;;;;49.63;21.77;;;;;;;-0.21;45.64;101348.22;4361848;32;34046;-61
2022/03/14 02:37:13;;;;;;;49.85;20.17;;;;;;;-0.47;45.89;101347.81;4392176;32;32511;-60
2022/03/14 02:39:40;;;;;;;49.10;23.10;;;;;;;0.21;44.35;101338.41;4386893;32;33723;-59
2022/03/14 02:42:08;;;;;;;53.08;22.40;;;;;;;-0.13;45.39;101346.53;4385951;32;33067;-58
2022/03/14 02:44:42;;;;;;;44.05;19.02;;;;;;;-0.75;46.59;101348.87;4395166;32;33445;-58
2022/03/14 02:47:11;;;;;;;48.03;18.77;;;;;;;-0.18;44.94;101348.56;4392518;32;34522;-58
2022/03/14 02:49:38;;;;;;;45.17;21.25;;;;;;;-0.71;45.51;101351.06;4396285;32;33432;-58
2022/03/14 02:52:06;;;;;;;52.47;20.95;;;;;;;-1.90;49.42;101362.72;4392316;32;34200;-60
2022/03/14 02:54:34;;;;;;;38.58;18.62;;;;;;;-1.16;47.94;101353.56;4397453;32;33903;-58
2022/03/14 02:57:02;;;;;;;43.17;18.30;;;;;;;-1.47;47.76;101355.09;4394107;32;33830;-60
2022/03/14 02:59:30;;;;;;;42.05;18.27;;;;;;;-1.23;46.40;101356.13;4378863;32;33715;-58
2022/03/14 03:01:58;;;;;;;45.33;18.20;;;;;;;-1.03;45.40;101364.41;4378355;32;31171;-59
2022/03/14 03:04:26;;;;;;;35.25;16.73;;;;;;;-0.32;44.05;101364.84;4392701;32;34653;-58
2022/03/14 03:06:57;;;;;;;30.52;14.73;;;;;;;-0.68;44.75;101357.38;4393453;32;34731;-60
2022/03/14 03:09:26;;;;;;;27.83;14.23;;;;;;;-0.75;45.16;101370.16;4403317;32;34088;-58
2022/03/14 03:11:54;;;;;;;28.30;12.07;;;;;;;-0.75;45.32;101370.16;4407473;32;34445;-60
2022/03/14 03:14:22;;;;;;;26.27;11.85;;;;;;;-1.18;45.88;101380.44;4393093;32;32100;-58
2022/03/14 03:16:50;;;;;;;28.15;14.38;;;;;;;-0.27;44.27;101379.00;4406842;32;33439;-59
2022/03/14 03:19:17;;;;;;;28.62;14.98;;;;;;;-0.84;44.41;101384.34;4392865;32;33951;-58
2022/03/14 03:21:45;;;;;;;36.05;17.50;;;;;;;-1.59;46.75;101389.22;4405997;32;33112;-60
2022/03/14 03:24:12;;;;;;;37.03;17.50;;;;;;;-1.59;47.23;101385.03;4407170;32;33761;-60
2022/03/14 03:26:40;;;;;;;40.42;16.65;;;;;;;-1.59;47.17;101384.12;4406570;32;33916;-59
2022/03/14 03:29:11;;;;;;;43.85;19.37;;;;;;;-0.97;44.61;101386.22;4406300;32;34853;-59
2022/03/14 03:31:39;;;;;;;46.30;18.75;;;;;;;-0.60;44.10;101384.62;4401300;32;34337;-60
2022/03/14 03:34:12;;;;;;;48.78;21.08;;;;;;;-0.50;44.48;101389.13;4405644;32;33758;-60
2022/03/14 03:36:39;;;;;;;53.60;22.40;;;;;;;-0.16;43.51;101392.03;4406377;32;33873;-60
2022/03/14 03:39:07;;;;;;;49.88;20.77;;;;;;;-0.15;43.65;101383.66;4408697;32;34402;-60
2022/03/14 03:41:34;;;;;;;47.62;21.48;;;;;;;0.04;43.41;101397.72;4408850;32;34300;-60
2022/03/14 03:44:02;;;;;;;47.55;20.42;;;;;;;-0.46;43.45;101390.38;4408665;32;34571;-60
2022/03/14 03:46:29;;;;;;;50.78;20.70;;;;;;;-1.22;44.99;101388.44;4406909;32;33812;-59
2022/03/14 03:49:03;;;;;;;44.38;19.55;;;;;;;-1.56;46.64;101396.28;4409026;32;33933;-59
2022/03/14 03:51:30;;;;;;;42.25;20.45;;;;;;;-1.49;47.96;101397.19;4394885;32;33285;-60
2022/03/14 03:53:57;;;;;;;50.80;20.30;;;;;;;-1.20;48.15;101395.53;4408186;32;33692;-60
2022/03/14 03:56:25;;;;;;;43.00;20.90;;;;;;;-1.58;48.73;101406.28;4409331;32;33457;-60
2022/03/14 03:58:53;;;;;;;42.72;19.92;;;;;;;-2.09;50.83;101406.97;4407820;32;34877;-59
2022/03/14 04:01:22;;;;;;;54.08;23.60;;;;;;;-2.44;51.90;101416.28;4408775;32;33401;-58
2022/03/14 04:03:54;;;;;;;52.42;25.25;;;;;;;-2.65;52.94;101405.34;4382904;32;33081;-60
2022/03/14 04:06:28;;;;;;;56.42;26.17;;;;;;;-2.75;53.35;101407.47;4394725;32;32301;-59
2022/03/14 04:08:56;;;;;;;51.13;24.10;;;;;;;-2.85;54.25;101404.53;4407101;32;32665;-58
2022/03/14 04:11:23;;;;;;;52.42;24.33;;;;;;;-2.36;52.89;101405.44;4408456;32;33165;-60
2022/03/14 04:13:51;;;;;;;45.00;19.25;;;;;;;-2.34;52.52;101416.69;4408905;32;33840;-60
2022/03/14 04:16:21;;;;;;;40.12;19.15;;;;;;;-2.13;50.29;101404.78;4407470;32;33850;-59
2022/03/14 04:18:53;;;;;;;38.63;18.45;;;;;;;-1.30;48.21;101400.25;4407629;32;34202;-60
2022/03/14 04:21:21;;;;;;;38.90;17.17;;;;;;;-1.11;46.57;101408.41;4408582;32;33610;-60
2022/03/14 04:23:48;;;;;;;33.38;14.00;;;;;;;-0.64;45.42;101415.56;4408388;32;34321;-58
2022/03/14 04:26:16;;;;;;;28.38;11.85;;;;;;;-1.55;47.18;101409.19;4407804;32;33817;-59
2022/03/14 04:28:44;;;;;;;22.65;12.20;;;;;;;-1.16;46.51;101416.22;4408513;32;34318;-58
2022/03/14 04:31:12;;;;;;;28.85;12.15;;;;;;;-0.68;44.98;101415.00;4408356;32;33143;-60
2022/03/14 04:33:39;;;;;;;27.30;12.02;;;;;;;-0.54;44.50;101411.50;4408065;32;33917;-58
2022/03/14 04:36:08;;;;;;;32.15;13.30;;;;;;;-0.42;44.63;101423.09;4392073;32;33472;-57
2022/03/14 04:38:35;;;;;;;26.17;11.88;;;;;;;-0.24;43.34;101419.19;4407005;32;33671;-57
2022/03/14 04:41:02;;;;;;;26.77;12.73;;;;;;;-0.21;43.31;101415.34;4393955;32;33656;-57
2022/03/14 04:43:31;;;;;;;22.92;12.07;;;;;;;-0.45;44.33;101422.72;4408034;32;34562;-59
2022/03/14 04:45:58;;;;;;;26.40;11.30;;;;;;;-0.36;43.87;101428.88;4407324;32;34073;-56
2022/03/14 04:48:26;;;;;;;25.88;12.35;;;;;;;-0.20;43.28;101436.59;4408258;32;34632;-57
2022/03/14 04:50:53;;;;;;;21.83;12.00;;;;;;;-0.49;43.60;101433.28;4408902;32;33276;-57
2022/03/14 04:53:21;;;;;;;24.70;12.25;;;;;;;-0.21;43.18;101435.72;4407749;32;34663;-57
2022/03/14 04:55:48;;;;;;;27.23;13.68;;;;;;;-0.33;42.97;101439.44;4408338;32;34808;-58
2022/03/14 04:58:17;;;;;;;25.95;12.88;;;;;;;-0.79;44.52;101439.22;4408745;32;33510;-56
2022/03/14 05:00:45;;;;;;;24.77;12.15;;;;;;;-1.02;44.94;101450.19;4406994;32;33498;-57
2022/03/14 05:03:14;;;;;;;28.00;13.55;;;;;;;-1.11;45.82;101433.84;4407731;32;33295;-57
2022/03/14 05:05:42;;;;;;;37.55;16.40;;;;;;;-1.72;48.03;101452.94;4408321;32;34511;-58
2022/03/14 05:08:09;;;;;;;40.53;18.10;;;;;;;-1.94;49.63;101458.69;4407840;32;33783;-58
2022/03/14 05:10:36;;;;;;;65.68;30.48;;;;;;;-2.41;51.66;101454.75;4407789;32;33360;-56
2022/03/14 05:13:04;;;;;;;71.20;32.67;;;;;;;-2.48;51.67;101462.31;4407636;32;33845;-56
2022/03/14 05:15:33;;;;;;;56.75;27.58;;;;;;;-2.57;52.48;101460.47;4408278;32;34256;-56
2022/03/14 05:18:01;;;;;;;64.40;30.45;;;;;;;-1.84;50.60;101452.34;4403451;32;34408;-56
2022/03/14 05:20:29;;;;;;;63.85;28.62;;;;;;;-2.46;52.32;101465.94;4407802;32;34346;-57
2022/03/14 05:22:57;;;;;;;59.65;27.70;;;;;;;-1.67;50.44;101471.25;4407827;32;33812;-58
2022/03/14 05:25:26;;;;;;;67.78;28.35;;;;;;;-1.91;51.12;101470.13;4403070;32;33863;-58
2022/03/14 05:27:54;;;;;;;56.88;25.58;;;;;;;-1.20;49.28;101458.19;4408060;32;34823;-57
2022/03/14 05:30:23;;;;;;;49.22;22.08;;;;;;;-1.00;48.33;101466.53;4391377;32;33595;-56
2022/03/14 05:32:50;;;;;;;55.53;24.80;;;;;;;-0.81;47.57;101464.50;4406995;32;33600;-58
2022/03/14 05:35:18;;;;;;;52.45;24.45;;;;;;;-1.03;47.81;101468.69;4408204;32;34695;-57
2022/03/14 05:37:47;;;;;;;49.20;23.23;;;;;;;-0.84;47.87;101470.84;4407416;32;34657;-59
2022/03/14 05:40:17;;;;;;;46.10;19.55;;;;;;;-0.54;47.30;101472.59;4407895;32;33594;-58
2022/03/14 05:42:48;;;;;;;40.97;17.90;;;;;;;-1.33;47.63;101480.34;4407738;32;34612;-57
2022/03/14 05:45:17;;;;;;;32.78;15.90;;;;;;;-1.87;49.29;101487.56;4406597;32;33703;-58
2022/03/14 05:47:46;;;;;;;33.17;18.92;;;;;;;-0.51;46.35;101488.22;4407225;32;33952;-58
2022/03/14 05:50:14;;;;;;;34.60;15.45;;;;;;;-0.02;44.45;101479.47;4408042;32;33571;-58
2022/03/14 05:52:42;;;;;;;27.80;14.50;;;;;;;0.15;43.57;101489.00;4407505;32;34577;-57
2022/03/14 05:55:10;;;;;;;29.25;14.10;;;;;;;0.33;43.24;101486.72;4407932;32;33595;-58
2022/03/14 05:57:37;;;;;;;28.05;14.00;;;;;;;-0.36;44.54;101500.16;4404412;32;33876;-58
2022/03/14 06:00:06;;;;;;;29.48;14.07;;;;;;;-0.16;44.77;101493.91;4407148;32;33321;-58
2022/03/14 06:02:45;;;;;;;30.08;13.73;;;;;;;0.24;43.83;101508.63;4402232;32;33824;-58
2022/03/14 06:05:13;;;;;;;34.67;13.60;;;;;;;-0.38;44.56;101506.72;4407792;32;34542;-59
2022/03/14 06:07:41;;;;;;;28.33;14.18;;;;;;;0.22;43.55;101511.00;4406230;32;33588;-57
2022/03/14 06:10:09;;;;;;;26.58;13.88;;;;;;;0.68;42.35;101516.16;4406630;32;33429;-56
2022/03/14 06:12:37;;;;;;;32.58;15.45;;;;;;;0.37;43.08;101516.94;4407907;32;34002;-58
2022/03/14 06:15:09;;;;;;;33.40;14.90;;;;;;;0.70;42.70;101513.78;4408006;32;34667;-56
2022/03/14 06:17:36;;;;;;;35.45;15.57;;;;;;;0.79;42.59;101519.88;4401172;32;33881;-58
2022/03/14 06:20:04;;;;;;;31.87;15.75;;;;;;;1.07;42.25;101517.84;4406523;32;34101;-57
2022/03/14 06:22:37;;;;;;;36.08;16.08;;;;;;;0.36;43.37;101530.38;4407862;32;33943;-58
2022/03/14 06:25:05;;;;;;;37.30;17.00;;;;;;;0.48;43.79;101529.22;4407578;32;34557;-56
2022/03/14 06:27:33;;;;;;;29.48;15.48;;;;;;;0.46;43.93;101532.34;4408161;32;34280;-57
2022/03/14 06:30:00;;;;;;;30.55;15.65;;;;;;;1.22;42.52;101526.25;4405677;32;31393;-57
2022/03/14 06:32:39;;;;;;;31.67;15.98;;;;;;;1.32;42.35;101535.09;4407941;32;33799;-57
2022/03/14 06:35:09;;;;;;;33.47;15.68;;;;;;;1.57;41.84;101531.00;4407553;32;33998;-58
2022/03/14 06:37:37;;;;;;;32.42;15.13;;;;;;;1.34;42.23;101536.16;4400219;32;33053;-58
2022/03/14 06:40:05;;;;;;;32.60;15.75;;;;;;;1.56;41.86;101533.38;4405875;32;32964;-59
2022/03/14 06:42:34;;;;;;;34.55;15.13;;;;;;;1.46;42.33;101530.59;4407361;32;34679;-58
2022/03/14 06:45:03;;;;;;;33.78;15.88;;;;;;;1.56;41.80;101531.75;4406201;32;32382;-57
2022/03/14 06:47:32;;;;;;;39.40;18.08;;;;;;;1.64;41.81;101532.59;4406936;32;34403;-57
2022/03/14 06:49:59;;;;;;;30.92;15.73;;;;;;;1.88;41.63;101533.41;4406553;32;33455;-57
2022/03/14 06:52:27;;;;;;;35.03;16.67;;;;;;;2.11;41.08;101533.28;4406414;32;34470;-57
2022/03/14 06:54:54;;;;;;;32.03;16.17;;;;;;;2.35;40.69;101537.53;4404460;32;33823;-58
2022/03/14 06:57:22;;;;;;;33.70;16.58;;;;;;;1.92;40.73;101545.75;4406939;32;34607;-57
2022/03/14 06:59:49;;;;;;;39.22;18.55;;;;;;;1.86;40.67;101540.00;4406272;32;33606;-57
2022/03/14 07:02:17;;;;;;;32.42;17.15;;;;;;;2.45;39.96;101550.50;4403166;32;33901;-57
2022/03/14 07:04:44;;;;;;;33.55;17.58;;;;;;;2.80;39.48;101544.72;4387348;32;31706;-57
2022/03/14 07:07:12;;;;;;;38.42;17.87;;;;;;;2.82;39.70;101541.59;4403854;32;33828;-59
2022/03/14 07:09:39;;;;;;;38.03;18.08;;;;;;;2.83;39.76;101552.72;4404370;32;33495;-59
2022/03/14 07:12:12;;;;;;;31.23;17.12;;;;;;;2.97;39.08;101541.34;4388709;32;33984;-58
2022/03/14 07:14:40;;;;;;;33.38;16.27;;;;;;;3.25;38.46;101545.97;4406741;32;34692;-60
2022/03/14 07:17:07;;;;;;;30.98;16.95;;;;;;;3.32;37.58;101538.16;4408379;32;33962;-61
2022/03/14 07:19:35;;;;;;;27.17;15.45;;;;;;;3.49;37.17;101537.28;4408899;32;33606;-61
2022/03/14 07:22:03;;;;;;;29.98;15.45;;;;;;;3.71;37.08;101535.22;4404675;32;33864;-60
2022/03/14 07:24:31;;;;;;;28.67;15.15;;;;;;;3.67;36.47;101535.69;4407571;32;33848;-61
2022/03/14 07:26:58;;;;;;;25.83;14.20;;;;;;;3.82;35.86;101543.06;4409188;32;33760;-60
2022/03/14 07:29:26;;;;;;;26.73;14.80;;;;;;;4.19;35.60;101534.81;4407724;32;34871;-59
2022/03/14 07:31:53;;;;;;;28.00;14.18;;;;;;;4.33;35.37;101541.28;4408580;32;34352;-60
2022/03/14 07:34:21;;;;;;;26.33;14.45;;;;;;;4.25;34.87;101537.03;4409129;32;33880;-60
2022/03/14 07:36:48;;;;;;;24.83;15.27;;;;;;;4.88;33.74;101537.97;4405622;32;33947;-59
2022/03/14 07:39:16;;;;;;;25.25;14.07;;;;;;;4.96;33.75;101534.47;4392237;32;33378;-57
2022/03/14 07:41:43;;;;;;;26.25;13.35;;;;;;;4.99;32.89;101537.34;4408197;32;33803;-57
2022/03/14 07:44:11;;;;;;;25.65;13.95;;;;;;;5.06;32.47;101532.03;4408533;32;34359;-57
2022/03/14 07:46:38;;;;;;;25.85;13.20;;;;;;;5.05;32.29;101544.72;4408871;32;34550;-58
2022/03/14 07:49:07;;;;;;;25.23;13.90;;;;;;;5.89;31.21;101538.78;4408733;32;33290;-57
2022/03/14 07:51:35;;;;;;;28.15;14.63;;;;;;;5.61;31.83;101546.53;4391590;32;33181;-58
2022/03/14 07:54:02;;;;;;;29.35;17.55;;;;;;;5.85;31.06;101537.63;4406931;32;33929;-58
2022/03/14 07:56:30;;;;;;;24.92;14.38;;;;;;;6.07;30.82;101540.50;4392696;32;33720;-58
2022/03/14 07:58:58;;;;;;;21.98;12.37;;;;;;;6.29;30.73;101545.00;4408358;32;33548;-58
2022/03/14 08:01:25;;;;;;;20.48;11.10;;;;;;;6.21;30.26;101551.13;4408275;32;33680;-58
2022/03/14 08:03:53;;;;;;;16.70;10.52;;;;;;;6.78;29.38;101544.22;4405174;32;33895;-57
2022/03/14 08:06:23;;;;;;;18.25;9.10;;;;;;;6.89;28.97;101546.06;4406563;32;33918;-59
2022/03/14 08:08:52;;;;;;;16.12;9.48;;;;;;;7.27;27.93;101545.00;4400613;32;33642;-59
2022/03/14 08:11:22;;;;;;;19.25;10.30;;;;;;;7.39;27.75;101547.72;4408220;32;34395;-58
2022/03/14 08:13:50;;;;;;;20.10;10.57;;;;;;;6.62;27.77;101548.78;4407783;32;34525;-58
2022/03/14 08:16:17;;;;;;;16.48;9.75;;;;;;;7.24;27.92;101553.38;4409290;32;34572;-59
2022/03/14 08:18:45;;;;;;;18.73;10.32;;;;;;;7.37;27.17;101557.00;4408836;32;33445;-58
2022/03/14 08:21:13;;;;;;;18.65;9.82;;;;;;;7.96;26.59;101548.25;4408374;32;33890;-59
2022/03/14 08:23:41;;;;;;;16.33;9.32;;;;;;;7.65;27.54;101558.56;4406509;32;33992;-59
2022/03/14 08:26:09;;;;;;;17.90;9.38;;;;;;;8.17;25.88;101555.94;4407268;32;34372;-59
2022/03/14 08:28:37;;;;;;;16.08;8.95;;;;;;;8.42;26.58;101557.22;4400250;32;33775;-58
2022/03/14 08:31:05;;;;;;;18.80;10.07;;;;;;;8.50;26.54;101557.84;4407587;32;33960;-58
2022/03/14 08:33:39;;;;;;;18.70;9.98;;;;;;;8.32;25.82;101557.19;4407960;32;33555;-59
2022/03/14 08:36:07;;;;;;;15.18;8.57;;;;;;;8.35;26.27;101564.31;4403383;32;33881;-59
2022/03/14 08:38:35;;;;;;;17.08;9.93;;;;;;;8.93;25.36;101552.63;4407780;32;33410;-60
2022/03/14 08:41:03;;;;;;;14.95;8.80;;;;;;;8.69;25.77;101562.78;4395133;32;33395;-58
2022/03/14 08:43:31;;;;;;;15.95;8.68;;;;;;;8.80;25.12;101556.81;4408286;32;34101;-57
2022/03/14 08:46:01;;;;;;;17.50;10.23;;;;;;;8.23;24.94;101559.06;4407762;32;34067;-60
2022/03/14 08:48:28;;;;;;;20.00;9.45;;;;;;;8.34;25.17;101558.22;4408290;32;33405;-57
2022/03/14 08:50:55;;;;;;;16.95;10.38;;;;;;;9.23;24.47;101560.22;4407599;32;34734;-59
2022/03/14 08:53:23;;;;;;;17.90;9.20;;;;;;;10.02;23.86;101558.44;4408469;32;34396;-57
2022/03/14 08:55:52;;;;;;;18.05;9.90;;;;;;;10.16;24.58;101551.69;4388369;32;34783;-58
2022/03/14 08:58:19;;;;;;;21.48;10.52;;;;;;;9.77;24.43;101563.44;4407978;32;33371;-59
2022/03/14 09:00:47;;;;;;;13.23;8.57;;;;;;;10.32;24.56;101559.88;4408669;32;34668;-58
2022/03/14 09:03:15;;;;;;;16.23;9.73;;;;;;;10.01;23.99;101552.37;4407480;32;33641;-57
2022/03/14 09:05:43;;;;;;;17.75;9.75;;;;;;;9.59;23.35;101556.09;4406256;32;33567;-58
2022/03/14 09:08:10;;;;;;;15.30;9.63;;;;;;;9.67;24.21;101566.13;4393859;32;32939;-60
2022/03/14 09:10:38;;;;;;;19.05;10.45;;;;;;;9.48;24.46;101562.09;4406998;32;34599;-59
2022/03/14 09:13:06;;;;;;;13.32;7.60;;;;;;;9.99;24.21;101564.28;4406879;32;33512;-60
2022/03/14 09:15:33;;;;;;;14.75;8.68;;;;;;;10.51;24.01;101554.34;4392857;32;33839;-57
2022/03/14 09:18:03;;;;;;;14.18;8.02;;;;;;;9.99;24.18;101559.13;4404471;32;31961;-59
2022/03/14 09:20:30;;;;;;;12.95;7.00;;;;;;;10.55;23.27;101555.47;4406551;32;32170;-59
2022/03/14 09:22:58;;;;;;;17.58;7.62;;;;;;;10.79;22.17;101554.63;4407115;32;34671;-57
2022/03/14 09:25:25;;;;;;;13.93;7.50;;;;;;;10.14;24.29;101550.69;4408406;32;34050;-58
2022/03/14 09:27:53;;;;;;;13.18;7.10;;;;;;;10.03;24.24;101550.78;4408401;32;34070;-56
2022/03/14 09:30:21;;;;;;;14.20;7.12;;;;;;;10.28;24.32;101557.81;4408184;32;34028;-58
2022/03/14 09:32:49;;;;;;;15.45;7.78;;;;;;;11.10;24.87;101551.63;4408215;32;33437;-59
2022/03/14 09:35:16;;;;;;;15.32;7.43;;;;;;;12.04;21.49;101542.53;4405637;32;34447;-59
2022/03/14 09:37:45;;;;;;;15.00;7.60;;;;;;;10.91;22.02;101548.53;4407739;32;31939;-59
2022/03/14 09:40:19;;;;;;;12.73;7.12;;;;;;;11.74;22.10;101555.22;4406099;32;33130;-59
2022/03/14 09:42:51;;;;;;;15.02;7.53;;;;;;;11.75;21.64;101554.41;4391744;32;33442;-59
2022/03/14 09:45:19;;;;;;;14.93;8.35;;;;;;;12.20;21.89;101552.22;4391658;32;34934;-59
2022/03/14 09:47:49;;;;;;;15.82;7.35;;;;;;;12.07;21.36;101560.00;4408186;32;33481;-57
2022/03/14 09:50:26;;;;;;;15.80;7.90;;;;;;;12.32;21.82;101550.47;4408376;32;33635;-59
2022/03/14 09:52:55;;;;;;;15.23;8.27;;;;;;;12.85;21.10;101546.91;4398393;32;33942;-57
2022/03/14 09:55:23;;;;;;;11.60;7.22;;;;;;;11.85;21.78;101548.16;4407871;32;33978;-57
2022/03/14 09:57:51;;;;;;;13.20;7.22;;;;;;;11.64;22.08;101544.09;4407345;32;33018;-58
2022/03/14 10:00:19;;;;;;;14.25;7.72;;;;;;;12.37;21.29;101550.75;4404325;32;34034;-57
2022/03/14 10:02:47;;;;;;;12.75;7.82;;;;;;;11.88;21.55;101548.37;4406288;32;33927;-57
2022/03/14 10:05:16;;;;;;;12.48;7.37;;;;;;;12.96;20.83;101542.37;4406860;32;33688;-57
2022/03/14 10:07:45;;;;;;;10.90;7.12;;;;;;;13.83;19.88;101546.88;4389518;32;34318;-58
2022/03/14 10:10:15;;;;;;;14.32;7.50;;;;;;;13.64;20.06;101557.00;4406312;32;34071;-60
2022/03/14 10:12:43;;;;;;;14.10;7.03;;;;;;;12.65;20.55;101547.34;4392270;32;34806;-57
2022/03/14 10:15:11;;;;;;;12.02;7.10;;;;;;;13.60;19.79;101541.97;4404886;32;34458;-57
2022/03/14 10:17:39;;;;;;;13.40;6.87;;;;;;;14.24;20.37;101539.69;4406072;32;34227;-58
2022/03/14 10:20:07;;;;;;;10.82;7.12;;;;;;;14.69;19.59;101536.22;4401864;32;33977;-58
2022/03/14 10:22:40;;;;;;;10.88;6.22;;;;;;;13.81;19.24;101538.09;4391157;32;32475;-57
2022/03/14 10:25:11;;;;;;;11.35;6.05;;;;;;;14.67;18.68;101527.41;4406962;32;34370;-57
2022/03/14 10:27:43;;;;;;;11.65;6.60;;;;;;;15.42;18.20;101522.75;4406082;32;33747;-57
2022/03/14 10:30:29;;;;;;;8.73;6.35;;;;;;;15.49;18.23;101530.09;4397664;32;33291;-57
2022/03/14 10:33:08;;;;;;;17.52;7.20;;;;;;;15.70;17.73;101532.00;4406087;32;33644;-59
2022/03/14 10:35:39;;;;;;;12.40;6.25;;;;;;;15.69;17.75;101527.63;4399498;32;34600;-57
2022/03/14 10:38:08;;;;;;;11.20;6.55;;;;;;;15.21;17.81;101532.94;4404541;32;32903;-58
2022/03/14 10:40:37;;;;;;;10.05;5.95;;;;;;;15.48;17.40;101528.28;4404405;32;33763;-58
2022/03/14 10:43:26;;;;;;;10.75;5.55;;;;;;;14.16;19.00;101536.66;4390516;32;33881;-57
2022/03/14 10:45:56;;;;;;;10.82;6.35;;;;;;;13.56;18.92;101547.03;4404880;32;33944;-57
2022/03/14 10:48:40;;;;;;;12.55;6.28;;;;;;;13.48;19.41;101548.28;4407441;32;33530;-57
2022/03/14 10:51:10;;;;;;;9.67;6.70;;;;;;;14.27;18.85;101539.84;4392172;32;33830;-57
2022/03/14 10:53:42;;;;;;;9.13;6.18;;;;;;;13.47;19.15;101541.25;4386496;32;34617;-57
2022/03/14 10:56:10;;;;;;;16.48;6.25;;;;;;;13.92;19.04;101539.59;4406042;32;34424;-57
2022/03/14 10:58:39;;;;;;;12.37;6.45;;;;;;;15.44;18.07;101534.16;4407413;32;33551;-57
2022/03/14 11:01:08;;;;;;;12.43;6.60;;;;;;;15.86;17.99;101537.25;4407114;32;33924;-57
2022/03/14 11:03:45;;;;;;;12.98;6.87;;;;;;;13.82;19.23;101532.06;4408674;32;34607;-57
2022/03/14 11:06:14;;;;;;;11.02;6.97;;;;;;;14.22;19.24;101526.56;4405895;32;33788;-57
2022/03/14 11:08:43;;;;;;;10.48;6.32;;;;;;;15.47;18.11;101534.34;4407729;32;33453;-58
2022/03/14 11:11:25;;;;;;;11.15;6.15;;;;;;;15.87;17.43;101528.59;4409405;32;33701;-57
2022/03/14 11:13:57;;;;;;;13.02;5.47;;;;;;;15.56;17.04;101525.19;4405218;32;34018;-57
2022/03/14 11:16:29;;;;;;;10.18;5.00;;;;;;;15.56;17.37;101520.84;4409078;32;32998;-57
2022/03/14 11:18:57;;;;;;;9.55;5.22;;;;;;;16.31;17.22;101509.00;4411899;32;32948;-57
2022/03/14 11:21:31;;;;;;;10.30;5.95;;;;;;;16.25;16.66;101511.31;4407079;32;33771;-57